createdAt,value
2023-05-05T00:01:25.003Z,4.82
2023-05-05T00:03:55.531Z,6.88
2023-05-05T00:06:25.057Z,7.30
2023-05-05T00:08:54.449Z,7.78
2023-05-05T00:11:22.739Z,7.63
2023-05-05T00:13:52.563Z,7.63
2023-05-05T00:16:23.255Z,6.93
2023-05-05T00:18:53.894Z,7.43
2023-05-05T00:21:23.200Z,6.75
2023-05-05T00:23:52.749Z,9.35
2023-05-05T00:26:22.504Z,7.22
2023-05-05T00:28:52.299Z,5.95
2023-05-05T00:31:21.694Z,7.00
2023-05-05T00:33:51.190Z,5.15
2023-05-05T00:36:20.614Z,5.03
2023-05-05T00:38:50.037Z,5.10
2023-05-05T00:41:20.745Z,5.78
2023-05-05T00:43:49.989Z,6.57
2023-05-05T00:46:25.647Z,5.45
2023-05-05T00:48:54.743Z,5.75
2023-05-05T00:51:24.914Z,6.03
2023-05-05T00:53:53.654Z,5.15
2023-05-05T00:56:24.635Z,8.63
2023-05-05T00:58:54.466Z,7.05
2023-05-05T01:01:24.238Z,9.00
2023-05-05T01:06:42.897Z,4.03
2023-05-05T01:09:26.991Z,6.60
2023-05-05T01:12:11.334Z,4.30
2023-05-05T01:14:42.093Z,4.30
2023-05-05T01:17:19.191Z,9.48
2023-05-05T01:20:03.782Z,4.43
2023-05-05T01:22:41.815Z,6.28
2023-05-05T01:25:31.817Z,5.32
2023-05-05T01:28:21.597Z,5.93
2023-05-05T01:31:09.927Z,5.82
2023-05-05T01:33:49.794Z,4.50
2023-05-05T01:36:24.548Z,6.78
2023-05-05T01:39:00.566Z,6.00
2023-05-05T01:41:38.956Z,4.05
2023-05-05T01:44:09.071Z,6.70
2023-05-05T01:46:39.031Z,4.50
2023-05-05T01:49:11.159Z,4.70
2023-05-05T01:51:40.816Z,6.32
2023-05-05T01:54:10.532Z,5.43
2023-05-05T01:56:41.812Z,7.30
2023-05-05T01:59:11.534Z,4.75
2023-05-05T02:01:45.849Z,6.45
2023-05-05T02:04:23.771Z,9.57
2023-05-05T02:06:53.240Z,5.30
2023-05-05T02:09:26.295Z,4.55
2023-05-05T02:11:56.259Z,4.38
2023-05-05T02:14:28.023Z,6.20
2023-05-05T02:16:59.098Z,4.85
2023-05-05T02:19:36.144Z,4.47
2023-05-05T02:22:06.089Z,5.30
2023-05-05T02:24:36.928Z,8.85
2023-05-05T02:27:08.780Z,7.22
2023-05-05T02:29:47.466Z,6.18
2023-05-05T02:32:26.260Z,4.82
2023-05-05T02:35:03.065Z,6.70
2023-05-05T02:37:35.943Z,8.00
2023-05-05T02:40:08.944Z,8.70
2023-05-05T02:42:43.131Z,3.55
2023-05-05T02:47:47.693Z,5.38
2023-05-05T02:50:17.458Z,6.03
2023-05-05T02:52:56.428Z,4.68
2023-05-05T02:55:27.484Z,5.72
2023-05-05T02:58:06.562Z,5.22
2023-05-05T03:00:49.615Z,3.55
2023-05-05T03:03:26.986Z,3.72
2023-05-05T03:06:09.592Z,6.03
2023-05-05T03:08:45.224Z,4.90
2023-05-05T03:11:25.354Z,7.80
2023-05-05T03:14:06.511Z,4.82
2023-05-05T03:16:37.798Z,6.18
2023-05-05T03:19:12.612Z,8.32
2023-05-05T03:21:45.184Z,5.32
2023-05-05T03:24:15.547Z,10.73
2023-05-05T03:26:50.832Z,4.03
2023-05-05T03:29:23.960Z,7.30
2023-05-05T03:31:54.268Z,14.35
2023-05-05T03:34:25.050Z,6.32
2023-05-05T03:36:54.565Z,5.47
2023-05-05T03:39:24.058Z,6.25
2023-05-05T03:41:55.141Z,4.10
2023-05-05T03:44:24.318Z,5.88
2023-05-05T03:46:52.450Z,6.88
2023-05-05T03:49:21.439Z,6.65
2023-05-05T03:51:52.504Z,5.43
2023-05-05T03:54:23.314Z,4.10
2023-05-05T03:56:54.783Z,4.75
2023-05-05T03:59:23.242Z,5.57
2023-05-05T04:01:52.418Z,7.32
2023-05-05T04:04:20.718Z,8.48
2023-05-05T04:06:51.591Z,4.75
2023-05-05T04:09:22.078Z,5.13
2023-05-05T04:11:52.360Z,4.93
2023-05-05T04:14:22.060Z,9.13
2023-05-05T04:16:50.421Z,4.22
2023-05-05T04:19:21.635Z,6.18
2023-05-05T04:21:52.031Z,6.18
2023-05-05T04:24:24.867Z,9.38
2023-05-05T04:26:55.703Z,4.95
2023-05-05T04:29:25.214Z,4.80
2023-05-05T04:31:56.108Z,6.20
2023-05-05T04:34:24.827Z,7.75
2023-05-05T04:36:54.404Z,4.82
2023-05-05T04:39:25.576Z,5.93
2023-05-05T04:41:55.358Z,8.75
2023-05-05T04:44:24.782Z,7.00
2023-05-05T04:46:54.522Z,3.97
2023-05-05T04:49:23.580Z,6.68
2023-05-05T04:51:53.225Z,4.13
2023-05-05T04:54:23.048Z,4.47
2023-05-05T04:56:55.504Z,5.30
2023-05-05T04:59:24.092Z,6.68
2023-05-05T05:01:55.034Z,5.72
2023-05-05T05:04:27.047Z,5.32
2023-05-05T05:06:59.303Z,4.38
2023-05-05T05:09:29.597Z,5.30
2023-05-05T05:12:04.867Z,4.60
2023-05-05T05:14:39.022Z,5.65
2023-05-05T05:17:10.372Z,5.05
2023-05-05T05:19:39.768Z,5.28
2023-05-05T05:22:09.370Z,3.63
2023-05-05T05:24:42.736Z,5.78
2023-05-05T05:27:13.819Z,6.00
2023-05-05T05:29:47.789Z,4.68
2023-05-05T05:32:16.786Z,5.63
2023-05-05T05:34:47.033Z,8.32
2023-05-05T05:37:16.229Z,5.82
2023-05-05T05:39:44.400Z,6.85
2023-05-05T05:42:15.062Z,6.00
2023-05-05T05:44:45.640Z,5.60
2023-05-05T05:47:14.366Z,5.50
2023-05-05T05:49:43.716Z,8.07
2023-05-05T05:52:14.420Z,6.22
2023-05-05T05:54:42.965Z,8.82
2023-05-05T05:57:12.157Z,6.65
2023-05-05T05:59:41.984Z,11.18
2023-05-05T06:02:12.776Z,7.55
2023-05-05T06:04:41.128Z,8.15
2023-05-05T06:07:10.228Z,9.13
2023-05-05T06:09:40.146Z,12.60
2023-05-05T06:12:08.554Z,8.02
2023-05-05T06:14:37.963Z,7.20
2023-05-05T06:17:09.088Z,7.72
2023-05-05T06:19:39.704Z,8.90
2023-05-05T06:22:10.471Z,8.50
2023-05-05T06:24:40.046Z,8.35
2023-05-05T06:27:10.960Z,9.95
2023-05-05T06:29:40.848Z,9.18
2023-05-05T06:32:10.515Z,7.82
2023-05-05T06:34:39.092Z,8.55
2023-05-05T06:37:07.566Z,8.35
2023-05-05T06:39:37.102Z,10.00
2023-05-05T06:42:06.967Z,11.70
2023-05-05T06:44:38.564Z,12.27
2023-05-05T06:47:08.309Z,14.68
2023-05-05T06:49:37.962Z,14.27
2023-05-05T06:52:08.255Z,16.60
2023-05-05T06:54:36.489Z,19.02
2023-05-05T06:57:05.861Z,22.83
2023-05-05T06:59:35.401Z,20.02
2023-05-05T07:02:04.846Z,16.58
2023-05-05T07:04:33.505Z,16.48
2023-05-05T07:07:04.402Z,19.63
2023-05-05T07:09:33.844Z,15.25
2023-05-05T07:12:02.238Z,20.08
2023-05-05T07:14:31.804Z,19.45
2023-05-05T07:19:29.507Z,20.55
2023-05-05T07:21:59.020Z,17.13
2023-05-05T07:24:28.552Z,22.90
2023-05-05T07:26:58.065Z,16.80
2023-05-05T07:29:26.642Z,17.98
2023-05-05T07:31:56.237Z,17.60
2023-05-05T07:34:24.611Z,19.23
2023-05-05T07:39:22.140Z,18.50
2023-05-05T07:41:53.166Z,22.45
2023-05-05T07:44:24.513Z,19.08
2023-05-05T07:46:54.106Z,16.80
2023-05-05T07:49:23.616Z,20.92
2023-05-05T07:51:53.391Z,22.38
2023-05-05T07:54:21.983Z,23.65
2023-05-05T07:56:51.992Z,18.30
2023-05-05T07:59:20.435Z,15.77
2023-05-05T08:01:50.019Z,20.63
2023-05-05T08:04:18.608Z,19.70
2023-05-05T08:06:47.202Z,21.50
2023-05-05T08:09:18.413Z,21.00
2023-05-05T08:11:46.735Z,17.48
2023-05-05T08:14:18.868Z,19.48
2023-05-05T08:16:48.302Z,17.98
2023-05-05T08:19:28.956Z,18.10
2023-05-05T08:22:01.230Z,18.00
2023-05-05T08:24:29.723Z,21.42
2023-05-05T08:26:59.602Z,19.63
2023-05-05T08:29:30.449Z,20.33
2023-05-05T08:32:00.452Z,18.10
2023-05-05T08:34:28.798Z,20.48
2023-05-05T08:39:26.480Z,17.38
2023-05-05T08:41:54.761Z,19.90
2023-05-05T08:44:23.041Z,18.60
2023-05-05T08:46:54.957Z,20.63
2023-05-05T08:49:26.693Z,20.20
2023-05-05T08:51:55.908Z,17.98
2023-05-05T08:54:28.294Z,18.30
2023-05-05T08:57:02.300Z,19.63
2023-05-05T08:59:34.689Z,17.73
2023-05-05T09:02:06.328Z,18.65
2023-05-05T09:04:36.274Z,15.95
2023-05-05T09:07:06.034Z,21.25
2023-05-05T09:09:36.008Z,17.10
2023-05-05T09:12:05.767Z,16.25
2023-05-05T09:14:34.156Z,15.75
2023-05-05T09:17:05.592Z,15.43
2023-05-05T09:19:36.287Z,17.95
2023-05-05T09:22:04.530Z,17.00
2023-05-05T09:24:33.999Z,18.35
2023-05-05T09:27:23.054Z,16.33
2023-05-05T09:29:52.881Z,17.23
2023-05-05T09:32:25.363Z,13.57
2023-05-05T09:35:01.331Z,17.60
2023-05-05T09:37:32.918Z,14.52
2023-05-05T09:40:02.520Z,15.75
2023-05-05T09:42:32.041Z,13.68
2023-05-05T09:45:01.393Z,14.30
2023-05-05T09:47:38.679Z,12.98
2023-05-05T09:50:12.501Z,14.10
2023-05-05T09:52:41.909Z,13.88
2023-05-05T09:55:19.052Z,14.10
2023-05-05T09:57:47.594Z,16.20
2023-05-05T10:00:19.135Z,15.15
2023-05-05T10:02:49.108Z,15.95
2023-05-05T10:05:19.918Z,12.35
2023-05-05T10:07:49.562Z,12.90
2023-05-05T10:10:20.624Z,15.25
2023-05-05T10:12:50.934Z,12.20
2023-05-05T10:15:20.479Z,8.52
2023-05-05T10:18:06.058Z,10.15
2023-05-05T10:20:41.105Z,14.32
2023-05-05T10:23:14.295Z,10.27
2023-05-05T10:26:00.148Z,9.68
2023-05-05T10:28:39.603Z,8.98
2023-05-05T10:34:06.283Z,8.60
2023-05-05T10:36:38.117Z,5.88
2023-05-05T10:39:09.400Z,5.38
2023-05-05T10:41:39.526Z,4.53
2023-05-05T10:44:10.702Z,6.03
2023-05-05T10:46:40.935Z,7.28
2023-05-05T10:49:18.662Z,5.55
2023-05-05T10:52:00.136Z,5.18
2023-05-05T10:54:38.302Z,7.68
2023-05-05T10:57:13.027Z,6.85
2023-05-05T10:59:44.087Z,9.20
2023-05-05T11:02:29.188Z,7.13
2023-05-05T11:05:09.422Z,5.72
2023-05-05T11:07:38.268Z,6.97
2023-05-05T11:10:11.762Z,7.55
2023-05-05T11:13:21.927Z,7.13
2023-05-05T11:15:54.310Z,6.53
2023-05-05T11:18:37.658Z,7.13
2023-05-05T11:21:17.808Z,4.95
2023-05-05T11:23:53.891Z,8.55
2023-05-05T11:26:52.242Z,8.07
2023-05-05T11:29:20.509Z,7.10
2023-05-05T11:32:12.337Z,5.45
2023-05-05T11:34:50.775Z,6.65
2023-05-05T11:37:26.321Z,5.85
2023-05-05T11:40:13.659Z,6.20
2023-05-05T11:42:43.253Z,7.72
2023-05-05T11:45:24.560Z,7.55
2023-05-05T11:47:55.204Z,8.25
2023-05-05T11:50:24.549Z,7.93
2023-05-05T11:52:54.127Z,5.75
2023-05-05T11:55:24.083Z,7.10
2023-05-05T11:57:54.053Z,6.95
2023-05-05T12:00:35.672Z,7.72
2023-05-05T12:03:07.237Z,7.53
2023-05-05T12:05:36.977Z,7.47
2023-05-05T12:08:08.192Z,5.65
2023-05-05T12:10:39.026Z,7.07
2023-05-05T12:13:19.638Z,4.28
2023-05-05T12:15:48.066Z,5.75
2023-05-05T12:18:20.003Z,6.25
2023-05-05T12:20:50.917Z,5.53
2023-05-05T12:23:20.554Z,6.63
2023-05-05T12:25:50.274Z,5.82
2023-05-05T12:28:19.678Z,5.68
2023-05-05T12:30:57.830Z,5.30
2023-05-05T12:33:28.047Z,7.63
2023-05-05T12:35:57.567Z,5.35
2023-05-05T12:38:28.253Z,5.45
2023-05-05T12:40:56.648Z,5.07
2023-05-05T12:43:32.687Z,6.22
2023-05-05T12:46:08.381Z,5.35
2023-05-05T12:48:39.855Z,7.35
2023-05-05T12:51:21.159Z,5.35
2023-05-05T12:54:04.105Z,3.03
2023-05-05T12:56:37.470Z,3.60
2023-05-05T12:59:07.704Z,3.45
2023-05-05T13:01:37.158Z,4.47
2023-05-05T13:04:09.605Z,4.53
2023-05-05T13:06:39.896Z,3.38
2023-05-05T13:09:23.229Z,4.10
2023-05-05T13:11:52.752Z,6.40
2023-05-05T13:14:23.166Z,3.10
2023-05-05T13:16:53.676Z,3.13
2023-05-05T13:19:24.882Z,6.13
2023-05-05T13:21:57.544Z,4.05
2023-05-05T13:24:38.578Z,5.53
2023-05-05T13:27:16.420Z,3.35
2023-05-05T13:29:46.293Z,7.95
2023-05-05T13:32:14.723Z,3.42
2023-05-05T13:34:45.331Z,3.55
2023-05-05T13:37:13.454Z,2.50
2023-05-05T13:39:44.453Z,4.88
2023-05-05T13:42:13.725Z,3.08
2023-05-05T13:44:44.380Z,3.20
2023-05-05T13:47:14.068Z,2.35
2023-05-05T13:49:42.359Z,2.13
2023-05-05T13:52:11.681Z,3.15
2023-05-05T13:54:41.088Z,4.00
2023-05-05T13:57:11.170Z,3.33
2023-05-05T13:59:39.327Z,5.07
2023-05-05T14:02:09.906Z,2.97
2023-05-05T14:04:38.282Z,4.15
2023-05-05T14:07:07.633Z,3.75
2023-05-05T14:09:36.990Z,4.18
2023-05-05T14:12:06.226Z,2.95
2023-05-05T14:14:37.078Z,3.95
2023-05-05T14:17:06.461Z,3.88
2023-05-05T14:19:34.649Z,4.50
2023-05-05T14:22:05.601Z,5.05
2023-05-05T14:24:33.943Z,5.50
2023-05-05T14:27:05.601Z,4.25
2023-05-05T14:29:37.472Z,7.00
2023-05-05T14:32:07.078Z,4.18
2023-05-05T14:34:36.761Z,8.00
2023-05-05T14:37:05.229Z,8.65
2023-05-05T14:39:33.447Z,8.85
2023-05-05T14:44:32.677Z,13.13
2023-05-05T14:47:03.439Z,12.82
2023-05-05T14:49:31.720Z,12.07
2023-05-05T14:52:01.108Z,10.80
2023-05-05T14:54:30.483Z,13.38
2023-05-05T14:57:00.158Z,10.77
2023-05-05T14:59:30.782Z,10.70
2023-05-05T15:02:00.259Z,14.20
2023-05-05T15:04:31.134Z,8.63
2023-05-05T15:06:59.380Z,12.27
2023-05-05T15:09:29.353Z,12.68
2023-05-05T15:12:00.259Z,14.60
2023-05-05T15:14:29.684Z,15.80
2023-05-05T15:16:58.267Z,14.10
2023-05-05T15:19:27.937Z,17.33
2023-05-05T15:21:57.522Z,15.23
2023-05-05T15:24:26.221Z,18.02
2023-05-05T15:26:55.627Z,16.15
2023-05-05T15:29:25.040Z,17.27
2023-05-05T15:31:53.660Z,16.08
2023-05-05T15:34:21.985Z,12.98
2023-05-05T15:36:52.835Z,12.02
2023-05-05T15:39:23.626Z,9.88
2023-05-05T15:41:51.742Z,8.05
2023-05-05T15:44:21.225Z,9.10
2023-05-05T15:49:20.151Z,6.30
2023-05-05T15:51:49.565Z,5.40
2023-05-05T15:54:19.490Z,7.85
2023-05-05T15:56:50.289Z,6.00
2023-05-05T15:59:19.735Z,5.88
2023-05-05T16:01:48.148Z,8.45
2023-05-05T16:04:18.544Z,4.32
2023-05-05T16:06:47.071Z,5.22
2023-05-05T16:09:15.739Z,5.63
2023-05-05T16:11:45.866Z,6.68
2023-05-05T16:14:17.093Z,4.15
2023-05-05T16:16:46.577Z,3.65
2023-05-05T16:19:16.089Z,4.95
2023-05-05T16:21:44.317Z,5.43
2023-05-05T16:24:16.343Z,5.38
2023-05-05T16:26:44.530Z,4.20
2023-05-05T16:29:16.515Z,6.18
2023-05-05T16:31:45.901Z,5.88
2023-05-05T16:34:14.567Z,8.68
2023-05-05T16:36:44.182Z,5.43
2023-05-05T16:39:15.154Z,6.28
2023-05-05T16:41:44.546Z,5.93
2023-05-05T16:44:14.483Z,13.30
2023-05-05T16:46:44.298Z,5.70
2023-05-05T16:49:12.567Z,6.30
2023-05-05T16:51:40.819Z,5.47
2023-05-05T16:54:11.357Z,5.93
2023-05-05T16:56:40.826Z,7.25
2023-05-05T16:59:10.487Z,6.00
2023-05-05T17:04:10.975Z,4.72
2023-05-05T17:06:40.298Z,6.07
2023-05-05T17:09:09.761Z,5.78
2023-05-05T17:11:39.150Z,7.25
2023-05-05T17:14:08.493Z,4.55
2023-05-05T17:16:38.123Z,8.00
2023-05-05T17:19:08.841Z,7.20
2023-05-05T17:21:38.191Z,9.90
2023-05-05T17:24:08.746Z,7.53
2023-05-05T17:26:38.081Z,9.18
2023-05-05T17:29:07.505Z,8.55
2023-05-05T17:31:37.349Z,8.48
2023-05-05T17:34:06.750Z,6.70
2023-05-05T17:36:37.610Z,9.70
2023-05-05T17:39:06.438Z,9.07
2023-05-05T17:41:34.858Z,7.55
2023-05-05T17:44:04.167Z,5.20
2023-05-05T17:46:35.017Z,6.43
2023-05-05T17:49:04.526Z,8.68
2023-05-05T17:51:34.048Z,4.75
2023-05-05T17:54:05.157Z,6.70
2023-05-05T17:56:34.045Z,4.68
2023-05-05T17:59:03.517Z,7.63
2023-05-05T18:01:33.353Z,6.90
2023-05-05T18:04:03.040Z,8.15
2023-05-05T18:09:01.577Z,7.80
2023-05-05T18:11:32.436Z,6.38
2023-05-05T18:14:03.015Z,7.35
2023-05-05T18:16:31.201Z,11.27
2023-05-05T18:19:01.771Z,8.13
2023-05-05T18:21:32.101Z,7.05
2023-05-05T18:24:15.655Z,10.35
2023-05-05T18:26:53.416Z,12.80
2023-05-05T18:29:23.386Z,11.25
2023-05-05T18:31:55.830Z,10.25
2023-05-05T18:34:25.326Z,12.65
2023-05-05T18:36:55.444Z,14.02
2023-05-05T18:39:24.446Z,9.50
2023-05-05T18:41:55.120Z,12.77
2023-05-05T18:44:23.207Z,11.23
2023-05-05T18:46:52.633Z,10.48
2023-05-05T18:49:20.812Z,9.73
2023-05-05T18:51:50.543Z,17.02
2023-05-05T18:54:19.933Z,17.80
2023-05-05T18:56:48.102Z,10.00
2023-05-05T18:59:18.892Z,15.95
2023-05-05T19:01:46.987Z,11.82
2023-05-05T19:04:29.556Z,18.42
2023-05-05T19:06:59.175Z,12.23
2023-05-05T19:09:29.960Z,15.15
2023-05-05T19:11:58.102Z,11.75
2023-05-05T19:14:28.731Z,10.85
2023-05-05T19:16:59.033Z,10.73
2023-05-05T19:19:28.516Z,15.73
2023-05-05T19:21:58.038Z,15.70
2023-05-05T19:24:28.061Z,12.75
2023-05-05T19:26:57.357Z,14.48
2023-05-05T19:29:28.044Z,16.27
2023-05-05T19:31:57.441Z,15.88
2023-05-05T19:34:27.298Z,23.85
2023-05-05T19:36:57.031Z,16.42
2023-05-05T19:41:54.645Z,19.58
2023-05-05T19:44:23.776Z,21.30
2023-05-05T19:46:53.977Z,16.55
2023-05-05T19:49:23.231Z,19.85
2023-05-05T19:51:55.580Z,16.45
2023-05-05T19:54:25.586Z,19.08
2023-05-05T19:56:58.344Z,23.23
2023-05-05T19:59:29.027Z,29.52
2023-05-05T20:01:58.547Z,26.13
2023-05-05T20:04:27.908Z,28.60
2023-05-05T20:06:57.501Z,26.38
2023-05-05T20:11:53.625Z,22.30
2023-05-05T20:14:24.411Z,22.58
2023-05-05T20:16:53.243Z,26.48
2023-05-05T20:19:24.006Z,30.58
2023-05-05T20:21:52.525Z,31.90
2023-05-05T20:26:51.291Z,27.10
2023-05-05T20:29:21.419Z,31.20
2023-05-05T20:31:49.788Z,34.92
2023-05-05T20:34:19.305Z,38.47
2023-05-05T20:36:50.089Z,50.97
2023-05-05T20:39:19.968Z,61.45
2023-05-05T20:41:48.133Z,72.20
2023-05-05T20:44:16.567Z,68.90
2023-05-05T20:46:47.278Z,81.15
2023-05-05T20:49:16.685Z,65.10
2023-05-05T20:51:45.346Z,67.63
2023-05-05T20:54:14.852Z,68.25
2023-05-05T20:56:44.408Z,68.85
2023-05-05T20:59:13.742Z,83.43
2023-05-05T21:01:43.630Z,77.93
2023-05-05T21:04:12.144Z,75.45
2023-05-05T21:06:42.724Z,64.45
2023-05-05T21:09:10.974Z,66.20
2023-05-05T21:11:41.682Z,69.65
2023-05-05T21:14:12.754Z,63.97
2023-05-05T21:16:43.029Z,56.90
2023-05-05T21:19:12.401Z,50.13
2023-05-05T21:21:41.683Z,43.85
2023-05-05T21:24:14.043Z,50.25
2023-05-05T21:26:45.830Z,47.28
2023-05-05T21:29:15.209Z,51.72
2023-05-05T21:31:44.620Z,40.47
2023-05-05T21:34:14.372Z,39.05
2023-05-05T21:36:43.763Z,45.92
2023-05-05T21:39:13.162Z,53.60
2023-05-05T21:41:43.788Z,59.88
2023-05-05T21:44:11.906Z,51.03
2023-05-05T21:46:42.550Z,55.38
2023-05-05T21:49:15.005Z,52.95
2023-05-05T21:51:45.289Z,50.53
2023-05-05T21:54:14.639Z,41.17
2023-05-05T21:56:44.243Z,42.15
2023-05-05T21:59:12.397Z,51.80
2023-05-05T22:01:42.973Z,48.63
2023-05-05T22:04:12.333Z,44.47
2023-05-05T22:06:40.851Z,39.42
2023-05-05T22:09:10.170Z,37.15
2023-05-05T22:11:40.702Z,40.95
2023-05-05T22:14:11.427Z,45.95
2023-05-05T22:16:40.961Z,36.92
2023-05-05T22:19:09.479Z,33.47
2023-05-05T22:21:37.998Z,36.90
2023-05-05T22:26:36.797Z,31.23
2023-05-05T22:29:06.100Z,33.30
2023-05-05T22:31:37.112Z,40.15
2023-05-05T22:34:07.934Z,27.75
2023-05-05T22:36:36.142Z,36.30
2023-05-05T22:39:04.404Z,37.45
2023-05-05T22:41:32.860Z,25.88
2023-05-05T22:48:59.615Z,30.02
2023-05-05T22:51:27.989Z,29.60
2023-05-05T22:53:56.156Z,32.40
2023-05-05T22:56:26.684Z,23.30
2023-05-05T22:58:56.022Z,32.30
2023-05-05T23:01:25.604Z,27.05
2023-05-05T23:03:53.827Z,31.73
2023-05-05T23:06:23.455Z,36.42
2023-05-05T23:08:53.301Z,36.40
2023-05-05T23:11:23.924Z,37.88
2023-05-05T23:13:52.241Z,38.10
2023-05-05T23:16:24.101Z,34.42
2023-05-05T23:18:53.893Z,50.10
2023-05-05T23:23:54.972Z,46.95
2023-05-05T23:26:24.506Z,46.15
2023-05-05T23:28:52.979Z,49.05
2023-05-05T23:31:22.293Z,46.05
2023-05-05T23:33:51.668Z,44.53
2023-05-05T23:36:19.873Z,44.35
2023-05-05T23:38:49.344Z,49.65
2023-05-05T23:41:19.513Z,47.83
2023-05-05T23:43:48.984Z,53.47
2023-05-05T23:46:17.119Z,59.45
2023-05-05T23:48:46.567Z,64.50
2023-05-05T23:51:15.930Z,67.43
2023-05-05T23:53:46.421Z,64.05
2023-05-05T23:56:15.856Z,79.53
2023-05-05T23:58:46.760Z,74.65
